createdAt,value
2023-02-18T00:01:19.811Z,6.56
2023-02-18T00:04:15.845Z,6.53
2023-02-18T00:06:51.080Z,6.51
2023-02-18T00:09:21.381Z,6.39
2023-02-18T00:12:30.597Z,6.42
2023-02-18T00:15:12.363Z,6.26
2023-02-18T00:21:32.152Z,6.26
2023-02-18T00:24:00.487Z,6.25
2023-02-18T00:29:56.904Z,6.27
2023-02-18T00:31:58.502Z,6.31
2023-02-18T00:52:04.800Z,6.11
2023-02-18T00:57:52.236Z,6.10
2023-02-18T01:00:21.916Z,6.12
2023-02-18T01:03:09.239Z,6.16
2023-02-18T01:08:34.607Z,6.02
2023-02-18T01:11:01.014Z,6.06
2023-02-18T01:13:48.769Z,6.04
2023-02-18T01:16:18.105Z,6.02
2023-02-18T01:22:10.066Z,6.10
2023-02-18T01:24:54.398Z,6.14
2023-02-18T01:27:23.019Z,6.09
2023-02-18T01:35:25.787Z,6.12
2023-02-18T01:40:59.525Z,5.99
2023-02-18T01:43:46.491Z,5.93
2023-02-18T01:46:23.626Z,5.92
2023-02-18T01:48:56.040Z,5.88
2023-02-18T01:51:25.064Z,5.85
2023-02-18T01:53:53.981Z,5.80
2023-02-18T01:56:23.036Z,5.86
2023-02-18T01:58:52.365Z,5.95
2023-02-18T02:01:19.156Z,5.98
2023-02-18T02:03:45.800Z,5.92
2023-02-18T02:06:19.153Z,5.93
2023-02-18T02:08:46.439Z,5.81
2023-02-18T02:11:32.099Z,5.80
2023-02-18T02:13:58.446Z,5.85
2023-02-18T02:16:30.264Z,5.76
2023-02-18T02:19:05.796Z,5.73
2023-02-18T02:21:50.860Z,5.66
2023-02-18T02:24:21.239Z,5.78
2023-02-18T02:26:48.159Z,5.69
2023-02-18T02:29:29.671Z,5.69
2023-02-18T02:32:05.287Z,5.71
2023-02-18T02:34:47.913Z,5.71
2023-02-18T02:37:32.636Z,5.67
2023-02-18T02:40:04.910Z,5.64
2023-02-18T02:42:50.144Z,5.68
2023-02-18T02:45:46.617Z,5.78
2023-02-18T02:48:40.129Z,5.72
2023-02-18T02:51:16.487Z,5.72
2023-02-18T02:53:42.822Z,5.81
2023-02-18T02:56:26.760Z,5.74
2023-02-18T02:59:16.841Z,5.77
2023-02-18T03:01:53.402Z,5.83
2023-02-18T03:04:25.575Z,5.77
2023-02-18T03:07:06.400Z,5.67
2023-02-18T03:09:38.635Z,5.64
2023-02-18T03:12:23.994Z,5.67
2023-02-18T03:14:56.696Z,5.60
2023-02-18T03:17:24.399Z,5.54
2023-02-18T03:20:20.198Z,5.65
2023-02-18T03:22:47.601Z,5.56
2023-02-18T03:25:15.039Z,5.56
2023-02-18T03:27:43.343Z,5.56
2023-02-18T03:31:05.664Z,5.71
2023-02-18T03:33:06.796Z,5.62
2023-02-18T03:35:43.096Z,5.62
2023-02-18T03:38:14.120Z,5.56
2023-02-18T03:40:43.007Z,5.49
2023-02-18T03:43:18.195Z,5.53
2023-02-18T03:45:47.211Z,5.47
2023-02-18T03:48:28.767Z,5.48
2023-02-18T03:50:57.078Z,5.39
2023-02-18T03:53:37.185Z,5.43
2023-02-18T03:56:03.534Z,5.45
2023-02-18T03:58:56.374Z,5.44
2023-02-18T04:04:22.744Z,5.35
2023-02-18T04:06:51.987Z,5.34
2023-02-18T04:09:24.599Z,5.25
2023-02-18T04:11:58.749Z,5.23
2023-02-18T04:14:29.600Z,5.37
2023-02-18T04:17:11.647Z,5.31
2023-02-18T04:19:38.286Z,5.35
2023-02-18T04:22:04.764Z,5.24
2023-02-18T04:24:33.575Z,5.24
2023-02-18T04:26:59.826Z,5.19
2023-02-18T04:29:26.153Z,5.18
2023-02-18T04:31:52.495Z,5.17
2023-02-18T04:34:26.387Z,5.17
2023-02-18T04:36:52.698Z,5.21
2023-02-18T04:39:18.966Z,5.25
2023-02-18T04:41:52.782Z,5.23
2023-02-18T04:44:19.019Z,5.28
2023-02-18T04:46:58.743Z,5.28
2023-02-18T04:49:38.296Z,5.29
2023-02-18T04:54:45.319Z,5.31
2023-02-18T04:57:14.669Z,5.31
2023-02-18T04:59:51.481Z,5.31
2023-02-18T05:02:45.971Z,5.38
2023-02-18T05:05:12.760Z,5.39
2023-02-18T05:07:57.319Z,5.37
2023-02-18T05:10:38.163Z,5.44
2023-02-18T05:13:04.861Z,5.36
2023-02-18T05:15:34.255Z,5.43
2023-02-18T05:18:18.721Z,5.42
2023-02-18T05:20:44.981Z,5.42
2023-02-18T05:23:20.376Z,5.44
2023-02-18T05:25:46.893Z,5.47
2023-02-18T05:28:16.877Z,5.46
2023-02-18T05:30:55.701Z,5.47
2023-02-18T05:36:15.535Z,5.54
2023-02-18T05:38:41.820Z,5.59
2023-02-18T05:41:15.531Z,5.58
2023-02-18T05:43:50.915Z,5.57
2023-02-18T05:46:21.577Z,5.64
2023-02-18T05:48:51.821Z,5.62
2023-02-18T05:51:20.753Z,5.63
2023-02-18T05:53:47.149Z,5.55
2023-02-18T05:56:24.203Z,5.51
2023-02-18T06:01:33.622Z,5.45
2023-02-18T06:04:03.354Z,5.37
2023-02-18T06:06:29.777Z,5.39
2023-02-18T06:08:57.016Z,5.43
2023-02-18T06:16:55.866Z,5.29
2023-02-18T06:19:29.946Z,5.29
2023-02-18T06:21:56.283Z,5.35
2023-02-18T06:24:31.145Z,5.40
2023-02-18T06:26:57.492Z,5.38
2023-02-18T06:29:37.316Z,5.35
2023-02-18T06:32:06.071Z,5.40
2023-02-18T06:40:14.766Z,5.40
2023-02-18T06:42:41.084Z,5.49
2023-02-18T06:45:07.485Z,5.54
2023-02-18T06:47:42.091Z,5.53
2023-02-18T06:50:13.873Z,5.57
2023-02-18T06:52:40.095Z,5.56
2023-02-18T06:55:12.662Z,5.63
2023-02-18T07:00:27.917Z,5.63
2023-02-18T07:03:40.876Z,5.65
2023-02-18T07:05:44.524Z,5.68
2023-02-18T07:08:19.403Z,5.68
2023-02-18T07:10:56.293Z,5.68
2023-02-18T07:13:25.544Z,5.74
2023-02-18T07:15:54.919Z,5.76
2023-02-18T07:18:21.747Z,5.78
2023-02-18T07:20:48.048Z,5.78
2023-02-18T07:23:19.787Z,5.81
2023-02-18T07:25:49.247Z,5.86
2023-02-18T07:28:15.843Z,5.87
2023-02-18T07:30:42.048Z,5.93
2023-02-18T07:33:09.733Z,5.90
2023-02-18T07:36:32.524Z,5.94
2023-02-18T07:38:43.215Z,5.97
2023-02-18T07:41:55.365Z,6.00
2023-02-18T07:44:26.832Z,6.03
2023-02-18T07:47:00.016Z,6.06
2023-02-18T07:49:26.585Z,6.08
2023-02-18T07:52:04.452Z,6.13
2023-02-18T07:54:31.195Z,6.18
2023-02-18T07:57:06.048Z,6.18
2023-02-18T07:59:41.200Z,6.18
2023-02-18T08:05:09.816Z,6.14
2023-02-18T08:07:36.376Z,6.14
2023-02-18T08:10:12.857Z,6.17
2023-02-18T08:12:47.222Z,6.16
2023-02-18T08:15:23.346Z,6.17
2023-02-18T08:17:51.074Z,6.17
2023-02-18T08:20:17.417Z,6.19
2023-02-18T08:22:56.198Z,6.22
2023-02-18T08:25:31.665Z,6.20
2023-02-18T08:27:58.419Z,6.18
2023-02-18T08:30:27.894Z,6.17
2023-02-18T08:32:54.255Z,6.22
2023-02-18T08:35:23.586Z,6.21
2023-02-18T08:37:54.031Z,6.19
2023-02-18T08:40:26.018Z,6.12
2023-02-18T08:42:54.502Z,6.08
2023-02-18T08:45:23.020Z,6.07
2023-02-18T08:48:17.727Z,6.09
2023-02-18T08:50:50.086Z,6.11
2023-02-18T08:53:30.546Z,6.12
2023-02-18T08:55:57.123Z,6.10
2023-02-18T08:58:26.549Z,6.10
2023-02-18T09:01:01.058Z,6.10
2023-02-18T09:03:27.860Z,6.18
2023-02-18T09:05:54.171Z,6.18
2023-02-18T09:08:20.497Z,6.23
2023-02-18T09:10:59.969Z,6.26
2023-02-18T09:13:26.709Z,6.13
2023-02-18T09:16:13.246Z,6.14
2023-02-18T09:18:47.701Z,6.08
2023-02-18T09:21:16.380Z,6.02
2023-02-18T09:23:42.758Z,5.95
2023-02-18T09:32:05.952Z,6.01
2023-02-18T10:18:55.572Z,6.03
2023-02-18T10:21:31.412Z,5.96
2023-02-18T10:24:01.698Z,5.96
2023-02-18T10:26:29.323Z,5.83
2023-02-18T10:28:55.736Z,5.81
2023-02-18T10:31:35.719Z,5.80
2023-02-18T10:34:24.037Z,5.77
2023-02-18T10:37:11.398Z,5.82
2023-02-18T10:40:00.787Z,5.88
2023-02-18T10:45:48.224Z,5.86
2023-02-18T10:48:29.698Z,5.90
2023-02-18T10:50:58.277Z,5.79
2023-02-18T10:53:34.441Z,5.70
2023-02-18T10:56:00.746Z,5.69
2023-02-18T10:58:37.017Z,5.71
2023-02-18T11:01:04.387Z,5.77
2023-02-18T11:03:49.928Z,5.68
2023-02-18T11:06:16.952Z,5.68
2023-02-18T11:08:43.683Z,5.73
2023-02-18T11:11:13.494Z,5.70
2023-02-18T11:13:39.717Z,5.66
2023-02-18T11:16:06.193Z,5.69
2023-02-18T11:18:42.458Z,5.71
2023-02-18T11:21:26.228Z,5.73
2023-02-18T11:23:53.037Z,5.71
2023-02-18T11:26:32.603Z,5.70
2023-02-18T11:29:00.384Z,5.65
2023-02-18T11:31:27.228Z,5.59
2023-02-18T11:33:57.304Z,5.54
2023-02-18T11:36:23.529Z,5.52
2023-02-18T11:38:51.009Z,5.56
2023-02-18T11:41:18.549Z,5.55
2023-02-18T11:43:46.409Z,5.50
2023-02-18T11:46:14.111Z,5.46
2023-02-18T11:48:40.347Z,5.49
2023-02-18T11:51:07.551Z,5.62
2023-02-18T11:53:34.883Z,5.61
2023-02-18T11:56:01.990Z,5.60
2023-02-18T11:58:28.339Z,5.60
2023-02-18T12:00:55.929Z,5.69
2023-02-18T12:03:27.312Z,5.75
2023-02-18T12:05:53.546Z,5.78
2023-02-18T12:08:20.840Z,5.65
2023-02-18T12:10:47.840Z,5.55
2023-02-18T12:13:22.503Z,5.51
2023-02-18T12:16:01.875Z,5.63
2023-02-18T12:18:42.659Z,5.69
2023-02-18T12:21:18.679Z,5.61
2023-02-18T12:23:52.667Z,5.55
2023-02-18T12:26:28.933Z,5.54
2023-02-18T12:29:02.102Z,5.59
2023-02-18T12:31:40.870Z,5.52
2023-02-18T12:34:12.487Z,5.34
2023-02-18T12:36:41.562Z,5.23
2023-02-18T12:39:07.738Z,5.23
2023-02-18T12:41:33.885Z,5.20
2023-02-18T12:44:15.195Z,5.05
2023-02-18T12:46:53.605Z,5.00
2023-02-18T12:49:41.881Z,4.93
2023-02-18T12:52:20.372Z,4.89
2023-02-18T12:55:01.811Z,4.81
2023-02-18T12:57:34.107Z,4.73
2023-02-18T13:00:09.122Z,4.71
2023-02-18T13:02:38.063Z,4.51
2023-02-18T13:05:11.457Z,4.33
2023-02-18T13:07:46.484Z,4.18
2023-02-18T13:10:20.339Z,4.07
2023-02-18T13:13:05.464Z,3.87
2023-02-18T13:15:39.280Z,3.98
2023-02-18T13:18:08.581Z,3.88
2023-02-18T13:20:44.067Z,3.76
2023-02-18T13:23:20.040Z,3.65
2023-02-18T13:25:46.344Z,3.69
2023-02-18T13:28:18.054Z,3.56
2023-02-18T13:30:47.224Z,3.50
2023-02-18T13:33:22.333Z,3.32
2023-02-18T13:35:50.484Z,3.27
2023-02-18T13:38:20.794Z,3.33
2023-02-18T13:40:47.020Z,3.70
2023-02-18T13:43:17.468Z,3.60
2023-02-18T13:45:43.714Z,3.57
2023-02-18T13:48:26.606Z,3.86
2023-02-18T13:50:52.859Z,3.79
2023-02-18T13:53:22.731Z,3.72
2023-02-18T13:56:02.629Z,3.64
2023-02-18T13:58:36.098Z,3.70
2023-02-18T14:01:07.239Z,3.75
2023-02-18T14:03:35.179Z,3.78
2023-02-18T14:06:02.762Z,3.92
2023-02-18T14:08:33.593Z,4.02
2023-02-18T14:11:11.998Z,4.00
2023-02-18T14:13:39.484Z,3.95
2023-02-18T14:16:05.984Z,3.96
2023-02-18T14:18:34.796Z,3.95
2023-02-18T14:21:11.394Z,3.99
2023-02-18T14:23:37.688Z,4.14
2023-02-18T14:26:15.969Z,4.01
2023-02-18T14:28:48.463Z,3.99
2023-02-18T14:31:14.928Z,4.06
2023-02-18T14:33:59.360Z,4.12
2023-02-18T14:36:25.565Z,4.10
2023-02-18T14:39:09.990Z,4.15
2023-02-18T14:41:43.029Z,4.19
2023-02-18T14:44:22.095Z,4.15
2023-02-18T14:46:48.298Z,4.23
2023-02-18T14:49:21.386Z,4.19
2023-02-18T14:51:47.695Z,4.26
2023-02-18T14:54:15.108Z,4.34
2023-02-18T14:56:56.661Z,4.18
2023-02-18T14:59:23.809Z,4.14
2023-02-18T15:01:50.076Z,4.11
2023-02-18T15:04:16.312Z,4.06
2023-02-18T15:06:42.531Z,4.00
2023-02-18T15:09:15.912Z,3.98
2023-02-18T15:11:43.286Z,3.92
2023-02-18T15:14:20.189Z,3.90
2023-02-18T15:16:46.495Z,3.98
2023-02-18T15:19:13.663Z,3.98
2023-02-18T15:21:40.778Z,4.04
2023-02-18T15:24:08.302Z,4.14
2023-02-18T15:26:35.695Z,4.15
2023-02-18T15:29:02.728Z,4.16
2023-02-18T15:31:29.593Z,4.02
2023-02-18T15:33:55.849Z,4.06
2023-02-18T15:36:22.061Z,4.13
2023-02-18T15:38:48.281Z,4.06
2023-02-18T15:41:15.577Z,3.92
2023-02-18T15:43:54.916Z,3.80
2023-02-18T15:46:21.203Z,3.67
2023-02-18T15:48:47.722Z,3.65
2023-02-18T15:51:17.636Z,3.73
2023-02-18T15:53:45.495Z,3.83
2023-02-18T15:56:14.937Z,3.80
2023-02-18T15:58:41.162Z,3.82
2023-02-18T16:01:07.731Z,3.85
2023-02-18T16:03:44.612Z,3.74
2023-02-18T16:06:24.135Z,3.71
2023-02-18T16:08:59.726Z,3.69
2023-02-18T16:11:26.808Z,3.69
2023-02-18T16:13:53.042Z,3.63
2023-02-18T16:16:29.573Z,3.55
2023-02-18T16:18:55.981Z,3.48
2023-02-18T16:21:23.914Z,3.43
2023-02-18T16:23:54.261Z,3.39
2023-02-18T16:26:27.354Z,3.31
2023-02-18T16:28:53.654Z,3.27
2023-02-18T16:31:20.122Z,3.23
2023-02-18T16:33:46.421Z,3.15
2023-02-18T16:36:13.601Z,3.14
2023-02-18T16:38:39.803Z,3.10
2023-02-18T16:41:06.091Z,2.97
2023-02-18T16:43:32.322Z,2.96
2023-02-18T16:45:58.986Z,2.97
2023-02-18T16:48:38.474Z,2.95
2023-02-18T16:51:13.072Z,2.95
2023-02-18T16:53:39.294Z,2.94
2023-02-18T16:56:06.154Z,3.05
2023-02-18T16:58:32.356Z,3.17
2023-02-18T17:00:58.679Z,3.20
2023-02-18T17:03:24.894Z,3.15
2023-02-18T17:05:51.182Z,3.09
2023-02-18T17:08:21.452Z,3.05
2023-02-18T17:10:47.887Z,2.98
2023-02-18T17:13:14.891Z,3.01
2023-02-18T17:15:41.102Z,3.01
2023-02-18T17:18:07.326Z,2.98
2023-02-18T17:20:33.602Z,2.99
2023-02-18T17:22:59.828Z,3.01
2023-02-18T17:25:34.107Z,2.99
2023-02-18T17:28:00.362Z,3.00
2023-02-18T17:30:26.794Z,3.01
2023-02-18T17:32:53.037Z,3.01
2023-02-18T17:35:20.208Z,3.03
2023-02-18T17:37:46.432Z,2.91
2023-02-18T17:40:13.563Z,2.89
2023-02-18T17:42:39.810Z,2.84
2023-02-18T17:45:13.070Z,2.82
2023-02-18T17:47:39.293Z,2.80
2023-02-18T17:50:05.780Z,2.72
2023-02-18T17:52:31.997Z,2.69
2023-02-18T17:54:58.252Z,2.65
2023-02-18T17:57:24.495Z,2.69
2023-02-18T17:59:50.908Z,2.58
2023-02-18T18:02:24.531Z,2.53
2023-02-18T18:04:50.776Z,2.51
2023-02-18T18:07:16.990Z,2.58
2023-02-18T18:09:43.369Z,2.56
2023-02-18T18:12:10.072Z,2.52
2023-02-18T18:14:36.341Z,2.51
2023-02-18T18:17:02.679Z,2.49
2023-02-18T18:19:28.953Z,2.47
2023-02-18T18:21:55.205Z,2.47
2023-02-18T18:24:21.420Z,2.47
2023-02-18T18:26:47.632Z,2.39
2023-02-18T18:29:13.862Z,2.40
2023-02-18T18:31:40.151Z,2.40
2023-02-18T18:34:06.646Z,2.33
2023-02-18T18:36:32.954Z,2.41
2023-02-18T18:38:59.214Z,2.38
2023-02-18T18:41:25.538Z,2.43
2023-02-18T18:43:51.750Z,2.44
2023-02-18T18:46:18.123Z,2.40
2023-02-18T18:48:44.856Z,2.29
2023-02-18T18:51:15.305Z,2.34
2023-02-18T18:53:43.356Z,2.37
2023-02-18T18:56:10.161Z,2.39
2023-02-18T18:58:37.570Z,2.42
2023-02-18T19:01:04.326Z,2.42
2023-02-18T19:03:31.424Z,2.46
2023-02-18T19:05:57.906Z,2.43
2023-02-18T19:08:24.193Z,2.45
2023-02-18T19:10:53.744Z,2.48
2023-02-18T19:13:23.955Z,2.56
2023-02-18T19:15:53.853Z,2.64
2023-02-18T19:18:20.253Z,2.64
2023-02-18T19:20:47.863Z,2.65
2023-02-18T19:23:14.080Z,2.66
2023-02-18T19:25:40.384Z,2.59
2023-02-18T19:28:06.628Z,2.65
2023-02-18T19:30:33.647Z,2.66
2023-02-18T19:33:00.330Z,2.60
2023-02-18T19:35:26.967Z,2.55
2023-02-18T19:37:53.225Z,2.56
2023-02-18T19:40:20.303Z,2.49
2023-02-18T19:42:46.515Z,2.46
2023-02-18T19:45:13.023Z,2.43
2023-02-18T19:47:39.936Z,2.42
2023-02-18T19:50:06.304Z,2.43
2023-02-18T19:52:32.763Z,2.35
2023-02-18T19:54:59.015Z,2.28
2023-02-18T19:57:25.371Z,2.31
2023-02-18T19:59:53.153Z,2.30
2023-02-18T20:05:07.528Z,2.28
2023-02-18T20:07:34.459Z,2.24
2023-02-18T20:10:00.683Z,2.25
2023-02-18T20:12:26.994Z,2.29
2023-02-18T20:14:59.625Z,2.20
2023-02-18T20:17:26.054Z,2.23
2023-02-18T20:19:52.427Z,2.27
2023-02-18T20:22:18.687Z,2.22
2023-02-18T20:24:44.922Z,2.17
2023-02-18T20:27:11.221Z,2.14
2023-02-18T20:29:37.532Z,2.19
2023-02-18T20:32:04.866Z,2.10
2023-02-18T20:34:31.171Z,2.06
2023-02-18T20:36:57.707Z,2.12
2023-02-18T20:39:23.910Z,2.26
2023-02-18T20:41:50.426Z,2.32
2023-02-18T20:44:17.049Z,2.23
2023-02-18T20:46:43.725Z,2.21
2023-02-18T20:49:13.094Z,2.29
2023-02-18T20:51:39.356Z,2.23
2023-02-18T20:54:06.015Z,2.32
2023-02-18T20:56:32.273Z,2.35
2023-02-18T20:58:58.663Z,2.28
2023-02-18T21:01:24.948Z,2.29
2023-02-18T21:03:51.199Z,2.32
2023-02-18T21:06:18.304Z,2.33
2023-02-18T21:08:44.756Z,2.38
2023-02-18T21:11:12.204Z,2.37
2023-02-18T21:13:38.522Z,2.35
2023-02-18T21:16:05.347Z,2.36
2023-02-18T21:18:31.907Z,2.34
2023-02-18T21:20:58.202Z,2.36
2023-02-18T21:23:24.443Z,2.36
2023-02-18T21:25:50.708Z,2.41
2023-02-18T21:28:17.192Z,2.50
2023-02-18T21:30:43.966Z,2.43
2023-02-18T21:33:13.408Z,2.46
2023-02-18T21:35:39.949Z,2.48
2023-02-18T21:38:06.321Z,2.48
2023-02-18T21:40:32.663Z,2.45
2023-02-18T21:42:59.163Z,2.45
2023-02-18T21:45:25.562Z,2.46
2023-02-18T21:47:51.880Z,2.42
2023-02-18T21:50:18.126Z,2.44
2023-02-18T21:52:44.497Z,2.45
2023-02-18T21:55:11.016Z,2.39
2023-02-18T21:57:37.351Z,2.48
2023-02-18T22:00:18.253Z,2.43
2023-02-18T22:02:46.059Z,2.43
2023-02-18T22:05:12.512Z,2.41
2023-02-18T22:07:38.838Z,2.41
2023-02-18T22:10:05.190Z,2.38
2023-02-18T22:12:31.439Z,2.37
2023-02-18T22:14:57.682Z,2.35
2023-02-18T22:17:23.987Z,2.30
2023-02-18T22:19:50.302Z,2.26
2023-02-18T22:22:16.722Z,2.30
2023-02-18T22:24:42.975Z,2.31
2023-02-18T22:27:09.285Z,2.29
2023-02-18T22:29:35.516Z,2.26
2023-02-18T22:32:01.870Z,2.30
2023-02-18T22:34:28.215Z,2.28
2023-02-18T22:36:54.524Z,2.41
2023-02-18T22:39:20.774Z,2.36
2023-02-18T22:41:47.457Z,2.34
2023-02-18T22:44:14.189Z,2.31
2023-02-18T22:46:40.442Z,2.27
2023-02-18T22:49:06.693Z,2.27
2023-02-18T22:51:39.617Z,2.31
2023-02-18T22:54:06.691Z,2.32
2023-02-18T22:56:33.015Z,2.31
2023-02-18T22:58:59.275Z,2.30
2023-02-18T23:01:26.271Z,2.23
2023-02-18T23:03:53.141Z,2.22
2023-02-18T23:06:19.616Z,2.17
2023-02-18T23:08:46.060Z,2.18
2023-02-18T23:11:13.171Z,2.14
2023-02-18T23:13:39.398Z,2.18
2023-02-18T23:16:06.513Z,2.21
2023-02-18T23:18:33.891Z,2.24
2023-02-18T23:21:00.692Z,2.26
2023-02-18T23:23:29.558Z,2.24
2023-02-18T23:26:00.071Z,2.28
2023-02-18T23:28:26.317Z,2.25
2023-02-18T23:30:52.641Z,2.26
2023-02-18T23:33:18.899Z,2.29
2023-02-18T23:35:45.131Z,2.27
2023-02-18T23:38:12.033Z,2.21
2023-02-18T23:40:38.381Z,2.19
2023-02-18T23:43:04.729Z,2.13
2023-02-18T23:45:30.986Z,2.11
2023-02-18T23:47:57.261Z,2.10
2023-02-18T23:50:23.668Z,2.06
2023-02-18T23:52:49.933Z,2.07
2023-02-18T23:55:16.257Z,2.11
2023-02-18T23:57:42.480Z,2.12
